createdAt,value
2023-08-04T00:02:11.369Z,100159.70
2023-08-04T00:04:42.304Z,100160.90
2023-08-04T00:07:13.141Z,100159.98
2023-08-04T00:09:43.974Z,100157.66
2023-08-04T00:12:15.024Z,100161.39
2023-08-04T00:14:47.821Z,100167.90
2023-08-04T00:17:19.212Z,100169.84
2023-08-04T00:19:50.262Z,100163.30
2023-08-04T00:22:21.334Z,100163.15
2023-08-04T00:24:52.384Z,100161.11
2023-08-04T00:27:23.537Z,100163.76
2023-08-04T00:29:54.564Z,100165.33
2023-08-04T00:32:26.009Z,100160.83
2023-08-04T00:34:57.100Z,100160.23
2023-08-04T00:37:28.176Z,100163.30
2023-08-04T00:39:59.181Z,100164.73
2023-08-04T00:42:30.065Z,100170.88
2023-08-04T00:45:01.228Z,100163.19
2023-08-04T00:47:36.916Z,100174.39
2023-08-04T00:50:12.116Z,100172.31
2023-08-04T00:52:45.881Z,100170.97
2023-08-04T00:55:19.021Z,100171.50
2023-08-04T00:57:51.215Z,100164.85
2023-08-04T01:00:23.009Z,100168.71
2023-08-04T01:02:54.239Z,100169.25
2023-08-04T01:05:31.059Z,100167.38
2023-08-04T01:08:11.948Z,100161.73
2023-08-04T01:10:53.092Z,100162.82
2023-08-04T01:13:26.745Z,100160.27
2023-08-04T01:15:58.900Z,100156.24
2023-08-04T01:18:29.926Z,100154.58
2023-08-04T01:21:05.036Z,100153.69
2023-08-04T01:23:36.247Z,100151.67
2023-08-04T01:26:10.593Z,100152.01
2023-08-04T01:28:42.517Z,100155.88
2023-08-04T01:31:14.284Z,100164.27
2023-08-04T01:33:47.100Z,100168.98
2023-08-04T01:36:18.545Z,100168.27
2023-08-04T01:38:49.521Z,100171.72
2023-08-04T01:41:20.448Z,100169.99
2023-08-04T01:43:51.413Z,100174.67
2023-08-04T01:46:22.564Z,100170.50
2023-08-04T01:48:53.562Z,100170.32
2023-08-04T01:51:24.505Z,100172.50
2023-08-04T01:53:55.630Z,100168.60
2023-08-04T01:56:26.819Z,100169.27
2023-08-04T01:58:57.716Z,100173.05
2023-08-04T02:01:28.757Z,100173.91
2023-08-04T02:04:00.235Z,100177.81
2023-08-04T02:06:31.080Z,100176.25
2023-08-04T02:09:02.090Z,100173.70
2023-08-04T02:11:33.322Z,100170.70
2023-08-04T02:14:04.227Z,100169.83
2023-08-04T02:16:35.381Z,100166.83
2023-08-04T02:19:07.666Z,100166.26
2023-08-04T02:21:39.417Z,100164.45
2023-08-04T02:24:10.661Z,100165.02
2023-08-04T02:26:41.915Z,100165.27
2023-08-04T02:29:12.896Z,100162.76
2023-08-04T02:31:45.021Z,100157.54
2023-08-04T02:34:16.694Z,100152.40
2023-08-04T02:36:47.833Z,100154.80
2023-08-04T02:39:18.868Z,100159.34
2023-08-04T02:41:50.165Z,100156.14
2023-08-04T02:44:21.474Z,100167.00
2023-08-04T02:46:52.553Z,100168.57
2023-08-04T02:49:23.921Z,100172.66
2023-08-04T02:51:55.035Z,100174.07
2023-08-04T02:54:26.446Z,100179.29
2023-08-04T02:56:57.546Z,100180.88
2023-08-04T02:59:28.930Z,100182.86
2023-08-04T03:01:59.826Z,100187.31
2023-08-04T03:04:30.760Z,100186.15
2023-08-04T03:07:01.823Z,100184.04
2023-08-04T03:09:33.175Z,100189.19
2023-08-04T03:12:04.292Z,100185.45
2023-08-04T03:14:35.233Z,100186.92
2023-08-04T03:17:07.223Z,100187.85
2023-08-04T03:19:38.322Z,100188.39
2023-08-04T03:22:09.769Z,100181.74
2023-08-04T03:24:40.756Z,100174.42
2023-08-04T03:27:11.869Z,100175.11
2023-08-04T03:29:42.685Z,100177.48
2023-08-04T03:32:13.993Z,100181.35
2023-08-04T03:34:45.011Z,100178.30
2023-08-04T03:37:16.268Z,100177.77
2023-08-04T03:39:47.220Z,100187.09
2023-08-04T03:42:18.294Z,100190.19
2023-08-04T03:44:49.385Z,100188.63
2023-08-04T03:47:20.399Z,100188.98
2023-08-04T03:49:51.432Z,100190.92
2023-08-04T03:52:22.588Z,100188.30
2023-08-04T03:54:53.850Z,100180.69
2023-08-04T03:57:24.911Z,100195.73
2023-08-04T03:59:56.954Z,100199.83
2023-08-04T04:02:28.305Z,100198.15
2023-08-04T04:04:59.471Z,100198.98
2023-08-04T04:07:30.725Z,100196.17
2023-08-04T04:10:01.692Z,100191.35
2023-08-04T04:12:33.183Z,100186.78
2023-08-04T04:15:05.377Z,100188.52
2023-08-04T04:17:36.566Z,100191.46
2023-08-04T04:20:09.540Z,100196.39
2023-08-04T04:22:40.587Z,100207.83
2023-08-04T04:25:12.269Z,100216.65
2023-08-04T04:27:43.339Z,100226.81
2023-08-04T04:30:15.100Z,100223.18
2023-08-04T04:32:45.919Z,100223.20
2023-08-04T04:35:17.552Z,100224.82
2023-08-04T04:37:48.830Z,100229.47
2023-08-04T04:40:19.972Z,100230.13
2023-08-04T04:42:51.099Z,100229.17
2023-08-04T04:45:22.321Z,100219.48
2023-08-04T04:47:53.504Z,100216.73
2023-08-04T04:50:24.609Z,100212.52
2023-08-04T04:52:55.570Z,100207.36
2023-08-04T04:55:26.646Z,100202.43
2023-08-04T04:57:57.604Z,100199.73
2023-08-04T05:00:28.594Z,100195.59
2023-08-04T05:02:59.737Z,100211.61
2023-08-04T05:05:32.488Z,100211.52
2023-08-04T05:08:04.012Z,100206.79
2023-08-04T05:10:35.723Z,100207.70
2023-08-04T05:13:06.793Z,100209.27
2023-08-04T05:15:38.157Z,100219.83
2023-08-04T05:18:09.122Z,100226.75
2023-08-04T05:20:40.546Z,100233.67
2023-08-04T05:23:12.626Z,100243.76
2023-08-04T05:25:44.252Z,100249.77
2023-08-04T05:28:25.759Z,100246.31
2023-08-04T05:30:59.873Z,100235.41
2023-08-04T05:33:32.512Z,100231.97
2023-08-04T05:36:04.319Z,100226.27
2023-08-04T05:38:35.924Z,100226.99
2023-08-04T05:41:07.324Z,100228.72
2023-08-04T05:43:38.231Z,100231.84
2023-08-04T05:46:13.815Z,100229.52
2023-08-04T05:48:45.464Z,100225.02
2023-08-04T05:51:18.532Z,100212.29
2023-08-04T05:53:49.837Z,100197.80
2023-08-04T05:56:21.088Z,100197.15
2023-08-04T05:58:52.268Z,100195.18
2023-08-04T06:01:23.415Z,100191.77
2023-08-04T06:03:54.517Z,100185.73
2023-08-04T06:06:25.862Z,100182.07
2023-08-04T06:08:57.239Z,100180.67
2023-08-04T06:11:28.386Z,100179.36
2023-08-04T06:13:59.757Z,100187.36
2023-08-04T06:16:30.972Z,100185.67
2023-08-04T06:19:02.216Z,100189.25
2023-08-04T06:21:37.127Z,100198.25
2023-08-04T06:24:08.582Z,100209.63
2023-08-04T06:26:39.876Z,100203.80
2023-08-04T06:29:10.986Z,100195.76
2023-08-04T06:31:42.241Z,100201.16
2023-08-04T06:34:13.893Z,100212.79
2023-08-04T06:36:48.444Z,100217.48
2023-08-04T06:39:20.250Z,100224.27
2023-08-04T06:41:51.518Z,100207.39
2023-08-04T06:44:23.097Z,100199.68
2023-08-04T06:46:53.993Z,100208.96
2023-08-04T06:49:25.314Z,100218.90
2023-08-04T06:51:56.430Z,100226.90
2023-08-04T06:54:27.502Z,100229.23
2023-08-04T06:56:58.438Z,100233.60
2023-08-04T06:59:30.039Z,100232.11
2023-08-04T07:02:01.180Z,100229.64
2023-08-04T07:04:32.322Z,100224.08
2023-08-04T07:07:03.556Z,100212.12
2023-08-04T07:09:34.799Z,100206.92
2023-08-04T07:12:07.576Z,100204.02
2023-08-04T07:14:38.830Z,100202.70
2023-08-04T07:17:09.840Z,100205.95
2023-08-04T07:19:40.912Z,100205.47
2023-08-04T07:22:12.172Z,100200.14
2023-08-04T07:24:44.176Z,100191.95
2023-08-04T07:27:15.207Z,100182.35
2023-08-04T07:29:46.312Z,100177.56
2023-08-04T07:32:17.501Z,100168.48
2023-08-04T07:34:48.909Z,100163.90
2023-08-04T07:37:20.161Z,100163.53
2023-08-04T07:39:51.068Z,100181.02
2023-08-04T07:42:22.330Z,100188.94
2023-08-04T07:44:53.805Z,100189.66
2023-08-04T07:47:24.969Z,100182.66
2023-08-04T07:49:56.004Z,100181.92
2023-08-04T07:52:26.884Z,100190.42
2023-08-04T07:54:58.096Z,100196.65
2023-08-04T07:57:29.484Z,100194.10
2023-08-04T08:00:00.801Z,100194.23
2023-08-04T08:02:32.105Z,100195.94
2023-08-04T08:05:03.436Z,100196.91
2023-08-04T08:07:44.786Z,100192.49
2023-08-04T08:10:17.891Z,100192.66
2023-08-04T08:12:49.664Z,100190.39
2023-08-04T08:15:21.258Z,100189.20
2023-08-04T08:17:52.310Z,100183.79
2023-08-04T08:20:23.614Z,100185.31
2023-08-04T08:22:54.683Z,100183.93
2023-08-04T08:25:26.794Z,100204.32
2023-08-04T08:27:57.788Z,100245.84
2023-08-04T08:30:29.690Z,100286.86
2023-08-04T08:33:00.968Z,100297.77
2023-08-04T08:35:32.229Z,100290.45
2023-08-04T08:38:03.756Z,100264.29
2023-08-04T08:40:35.315Z,100255.83
2023-08-04T08:43:06.930Z,100238.10
2023-08-04T08:45:39.755Z,100236.85
2023-08-04T08:48:13.010Z,100239.58
2023-08-04T08:50:48.900Z,100247.27
2023-08-04T08:53:26.034Z,100245.45
2023-08-04T08:55:57.257Z,100226.80
2023-08-04T08:58:30.787Z,100220.33
2023-08-04T09:01:04.216Z,100235.98
2023-08-04T09:03:38.276Z,100241.25
2023-08-04T09:06:09.620Z,100245.63
2023-08-04T09:08:41.006Z,100241.70
2023-08-04T09:11:13.021Z,100231.30
2023-08-04T09:13:46.917Z,100234.42
2023-08-04T09:16:19.886Z,100238.09
2023-08-04T09:18:51.050Z,100231.67
2023-08-04T09:21:23.268Z,100244.88
2023-08-04T09:23:54.556Z,100249.16
2023-08-04T09:26:25.952Z,100254.24
2023-08-04T09:29:08.794Z,100260.99
2023-08-04T09:31:41.120Z,100272.80
2023-08-04T09:34:13.076Z,100280.16
2023-08-04T09:36:46.670Z,100276.13
2023-08-04T09:39:19.505Z,100268.98
2023-08-04T09:41:51.464Z,100270.17
2023-08-04T09:44:22.746Z,100271.96
2023-08-04T09:46:55.383Z,100271.67
2023-08-04T09:49:26.915Z,100268.30
2023-08-04T09:52:00.390Z,100269.70
2023-08-04T09:54:31.903Z,100279.52
2023-08-04T09:57:03.271Z,100284.80
2023-08-04T09:59:34.882Z,100282.45
2023-08-04T10:02:07.161Z,100282.79
2023-08-04T10:04:38.988Z,100283.29
2023-08-04T10:07:11.745Z,100294.33
2023-08-04T10:09:43.435Z,100295.11
2023-08-04T10:12:15.553Z,100282.45
2023-08-04T10:14:46.925Z,100272.83
2023-08-04T10:17:20.884Z,100287.91
2023-08-04T10:20:02.242Z,100291.27
2023-08-04T10:22:33.874Z,100285.13
2023-08-04T10:25:17.081Z,100281.88
2023-08-04T10:27:52.487Z,100272.02
2023-08-04T10:30:35.713Z,100263.55
2023-08-04T10:33:22.616Z,100252.36
2023-08-04T10:36:09.390Z,100238.92
2023-08-04T10:38:52.004Z,100228.90
2023-08-04T10:41:23.138Z,100223.66
2023-08-04T10:44:03.648Z,100217.84
2023-08-04T10:46:36.072Z,100218.60
2023-08-04T10:49:07.709Z,100233.64
2023-08-04T10:51:38.956Z,100247.14
2023-08-04T10:54:10.516Z,100260.86
2023-08-04T10:56:41.884Z,100269.94
2023-08-04T10:59:13.126Z,100274.54
2023-08-04T11:01:44.279Z,100276.81
2023-08-04T11:04:15.716Z,100270.66
2023-08-04T11:06:47.432Z,100272.94
2023-08-04T11:09:18.569Z,100275.31
2023-08-04T11:11:50.421Z,100277.05
2023-08-04T11:14:23.293Z,100282.61
2023-08-04T11:16:56.888Z,100296.27
2023-08-04T11:19:28.003Z,100298.09
2023-08-04T11:21:59.188Z,100307.13
2023-08-04T11:24:30.448Z,100310.27
2023-08-04T11:27:01.832Z,100311.58
2023-08-04T11:29:33.979Z,100306.16
2023-08-04T11:32:09.707Z,100304.98
2023-08-04T11:34:42.547Z,100304.61
2023-08-04T11:37:13.836Z,100307.35
2023-08-04T11:39:45.225Z,100306.81
2023-08-04T11:42:17.136Z,100295.59
2023-08-04T11:44:49.128Z,100284.73
2023-08-04T11:47:20.744Z,100288.79
2023-08-04T11:49:53.324Z,100288.59
2023-08-04T11:52:24.801Z,100286.93
2023-08-04T11:54:58.453Z,100287.48
2023-08-04T11:57:30.251Z,100296.11
2023-08-04T12:00:02.263Z,100310.45
2023-08-04T12:02:59.372Z,100306.99
2023-08-04T12:05:35.057Z,100290.45
2023-08-04T12:08:14.629Z,100291.56
2023-08-04T12:10:46.428Z,100298.05
2023-08-04T12:13:37.162Z,100304.83
2023-08-04T12:16:09.020Z,100310.40
2023-08-04T12:18:41.926Z,100308.17
2023-08-04T12:21:16.406Z,100296.64
2023-08-04T12:23:51.675Z,100284.31
2023-08-04T12:26:23.084Z,100284.76
2023-08-04T12:28:54.874Z,100280.08
2023-08-04T12:31:26.758Z,100285.57
2023-08-04T12:33:58.529Z,100288.59
2023-08-04T12:36:30.090Z,100287.35
2023-08-04T12:39:01.820Z,100281.36
2023-08-04T12:41:34.256Z,100294.94
2023-08-04T12:44:06.640Z,100314.32
2023-08-04T12:46:38.305Z,100339.13
2023-08-04T12:49:09.660Z,100357.20
2023-08-04T12:51:40.948Z,100351.86
2023-08-04T12:54:12.109Z,100337.95
2023-08-04T12:56:43.051Z,100334.02
2023-08-04T12:59:14.094Z,100329.65
2023-08-04T13:01:45.339Z,100334.61
2023-08-04T13:04:16.802Z,100336.57
2023-08-04T13:06:49.061Z,100337.81
2023-08-04T13:09:20.481Z,100335.77
2023-08-04T13:11:51.711Z,100329.38
2023-08-04T13:14:22.732Z,100325.86
2023-08-04T13:16:53.863Z,100323.01
2023-08-04T13:19:25.396Z,100327.30
2023-08-04T13:21:56.595Z,100333.27
2023-08-04T13:24:27.709Z,100336.54
2023-08-04T13:26:58.965Z,100342.70
2023-08-04T13:29:30.278Z,100351.54
2023-08-04T13:32:01.425Z,100355.90
2023-08-04T13:34:32.749Z,100352.60
2023-08-04T13:37:03.996Z,100353.54
2023-08-04T13:39:35.761Z,100344.11
2023-08-04T13:42:08.094Z,100337.01
2023-08-04T13:44:39.345Z,100323.27
2023-08-04T13:47:10.905Z,100314.55
2023-08-04T13:49:42.471Z,100312.27
2023-08-04T13:52:13.608Z,100315.26
2023-08-04T13:54:45.068Z,100307.81
2023-08-04T13:57:21.935Z,100298.89
2023-08-04T14:00:02.596Z,100293.98
2023-08-04T14:02:35.573Z,100287.31
2023-08-04T14:05:08.809Z,100284.30
2023-08-04T14:07:42.600Z,100293.39
2023-08-04T14:10:14.532Z,100289.48
2023-08-04T14:12:45.566Z,100289.84
2023-08-04T14:15:16.915Z,100284.27
2023-08-04T14:17:48.339Z,100284.16
2023-08-04T14:20:23.225Z,100283.43
2023-08-04T14:22:54.677Z,100290.02
2023-08-04T14:25:25.563Z,100300.45
2023-08-04T14:27:56.588Z,100309.80
2023-08-04T14:30:27.452Z,100312.29
2023-08-04T14:32:58.530Z,100320.38
2023-08-04T14:35:29.650Z,100318.67
2023-08-04T14:38:01.607Z,100312.95
2023-08-04T14:40:32.787Z,100308.13
2023-08-04T14:43:04.135Z,100306.61
2023-08-04T14:45:37.939Z,100310.17
2023-08-04T14:48:09.444Z,100319.40
2023-08-04T14:50:43.128Z,100322.34
2023-08-04T14:53:14.647Z,100332.69
2023-08-04T14:55:45.719Z,100341.05
2023-08-04T14:58:16.707Z,100348.41
2023-08-04T15:00:48.089Z,100330.85
2023-08-04T15:03:18.952Z,100329.71
2023-08-04T15:05:50.050Z,100335.06
2023-08-04T15:08:21.221Z,100327.00
2023-08-04T15:10:52.460Z,100328.29
2023-08-04T15:13:23.655Z,100331.66
2023-08-04T15:15:55.204Z,100311.28
2023-08-04T15:18:26.472Z,100311.65
2023-08-04T15:20:57.438Z,100310.06
2023-08-04T15:23:28.863Z,100300.66
2023-08-04T15:26:00.935Z,100290.80
2023-08-04T15:28:32.265Z,100286.48
2023-08-04T15:31:09.020Z,100295.75
2023-08-04T15:33:40.915Z,100277.21
2023-08-04T15:36:12.639Z,100289.83
2023-08-04T15:38:43.996Z,100286.73
2023-08-04T15:41:15.191Z,100293.40
2023-08-04T15:43:46.226Z,100292.20
2023-08-04T15:46:17.500Z,100289.52
2023-08-04T15:48:48.885Z,100295.81
2023-08-04T15:51:20.123Z,100301.13
2023-08-04T15:53:52.529Z,100286.73
2023-08-04T15:56:23.539Z,100286.45
2023-08-04T15:58:54.601Z,100278.58
2023-08-04T16:01:25.892Z,100271.40
2023-08-04T16:03:57.199Z,100268.56
2023-08-04T16:06:28.311Z,100263.17
2023-08-04T16:08:59.272Z,100257.18
2023-08-04T16:11:30.902Z,100246.77
2023-08-04T16:14:02.266Z,100238.36
2023-08-04T16:16:33.434Z,100239.73
2023-08-04T16:19:04.714Z,100231.24
2023-08-04T16:21:36.029Z,100226.63
2023-08-04T16:24:09.022Z,100223.99
2023-08-04T16:26:41.050Z,100221.51
2023-08-04T16:29:13.434Z,100220.02
2023-08-04T16:31:45.200Z,100220.41
2023-08-04T16:34:16.833Z,100220.74
2023-08-04T16:36:48.565Z,100214.52
2023-08-04T16:39:20.386Z,100207.30
2023-08-04T16:41:51.848Z,100209.85
2023-08-04T16:44:23.145Z,100204.30
2023-08-04T16:46:54.445Z,100214.53
2023-08-04T16:49:25.812Z,100233.94
2023-08-04T16:51:57.399Z,100248.92
2023-08-04T16:54:28.531Z,100252.82
2023-08-04T16:56:59.759Z,100251.42
2023-08-04T16:59:31.145Z,100254.48
2023-08-04T17:02:02.270Z,100259.03
2023-08-04T17:04:33.732Z,100265.39
2023-08-04T17:07:05.158Z,100265.08
2023-08-04T17:09:36.684Z,100279.13
2023-08-04T17:12:09.618Z,100282.81
2023-08-04T17:14:40.774Z,100301.20
2023-08-04T17:17:11.858Z,100310.87
2023-08-04T17:19:43.383Z,100320.49
2023-08-04T17:22:15.432Z,100325.91
2023-08-04T17:24:46.454Z,100325.30
2023-08-04T17:27:17.650Z,100323.25
2023-08-04T17:29:48.838Z,100333.38
2023-08-04T17:32:20.210Z,100339.52
2023-08-04T17:34:51.318Z,100337.89
2023-08-04T17:37:22.975Z,100345.11
2023-08-04T17:39:54.179Z,100347.49
2023-08-04T17:42:25.345Z,100355.23
2023-08-04T17:44:56.534Z,100361.56
2023-08-04T17:47:27.923Z,100360.75
2023-08-04T17:49:59.259Z,100362.73
2023-08-04T17:52:30.469Z,100370.65
2023-08-04T17:55:02.285Z,100376.68
2023-08-04T17:57:33.589Z,100379.63
2023-08-04T18:00:05.358Z,100385.52
2023-08-04T18:02:44.243Z,100386.13
2023-08-04T18:05:15.958Z,100384.36
2023-08-04T18:07:47.023Z,100385.70
2023-08-04T18:10:18.216Z,100393.21
2023-08-04T18:12:49.610Z,100393.86
2023-08-04T18:15:20.774Z,100392.84
2023-08-04T18:17:51.755Z,100398.84
2023-08-04T18:20:23.300Z,100398.36
2023-08-04T18:22:54.174Z,100395.62
2023-08-04T18:25:25.399Z,100398.16
2023-08-04T18:27:56.838Z,100395.74
2023-08-04T18:30:28.126Z,100393.81
2023-08-04T18:32:59.337Z,100390.88
2023-08-04T18:35:30.343Z,100388.27
2023-08-04T18:38:01.655Z,100387.66
2023-08-04T18:40:32.774Z,100390.06
2023-08-04T18:43:03.868Z,100392.51
2023-08-04T18:45:35.646Z,100389.14
2023-08-04T18:48:07.618Z,100389.33
2023-08-04T18:50:38.745Z,100386.88
2023-08-04T18:53:09.833Z,100389.05
2023-08-04T18:55:42.100Z,100391.91
2023-08-04T18:58:13.509Z,100387.34
2023-08-04T19:00:44.953Z,100393.55
2023-08-04T19:03:16.159Z,100401.85
2023-08-04T19:05:47.367Z,100408.34
2023-08-04T19:08:18.645Z,100407.76
2023-08-04T19:10:49.607Z,100409.77
2023-08-04T19:13:20.628Z,100402.64
2023-08-04T19:15:51.751Z,100394.26
2023-08-04T19:18:23.116Z,100387.70
2023-08-04T19:20:54.599Z,100390.69
2023-08-04T19:23:25.610Z,100392.54
2023-08-04T19:25:57.568Z,100385.71
2023-08-04T19:28:28.916Z,100382.39
2023-08-04T19:31:05.742Z,100382.30
2023-08-04T19:33:37.025Z,100381.73
2023-08-04T19:36:08.863Z,100376.96
2023-08-04T19:38:40.157Z,100373.62
2023-08-04T19:41:11.778Z,100370.34
2023-08-04T19:43:43.585Z,100373.69
2023-08-04T19:46:15.050Z,100377.52
2023-08-04T19:48:48.047Z,100384.13
2023-08-04T19:51:19.983Z,100383.61
2023-08-04T19:53:51.566Z,100384.02
2023-08-04T19:56:22.971Z,100377.87
2023-08-04T19:58:55.073Z,100389.03
2023-08-04T20:01:26.672Z,100398.27
2023-08-04T20:03:57.758Z,100403.21
2023-08-04T20:06:29.723Z,100406.20
2023-08-04T20:09:01.469Z,100401.81
2023-08-04T20:11:32.797Z,100397.23
2023-08-04T20:14:04.841Z,100400.80
2023-08-04T20:16:36.331Z,100397.77
2023-08-04T20:19:07.904Z,100384.77
2023-08-04T20:21:39.100Z,100391.08
2023-08-04T20:24:10.967Z,100385.83
2023-08-04T20:26:43.465Z,100379.13
2023-08-04T20:29:14.861Z,100375.27
2023-08-04T20:31:46.193Z,100375.67
2023-08-04T20:34:17.802Z,100375.21
2023-08-04T20:36:49.654Z,100371.91
2023-08-04T20:39:21.222Z,100366.56
2023-08-04T20:41:52.305Z,100362.91
2023-08-04T20:44:23.450Z,100358.80
2023-08-04T20:46:54.594Z,100358.05
2023-08-04T20:49:25.746Z,100358.38
2023-08-04T20:51:57.134Z,100355.77
2023-08-04T20:54:28.788Z,100357.83
2023-08-04T20:56:59.979Z,100353.11
2023-08-04T20:59:31.934Z,100354.24
2023-08-04T21:02:03.264Z,100344.42
2023-08-04T21:04:35.027Z,100341.64
2023-08-04T21:07:09.008Z,100339.38
2023-08-04T21:09:40.813Z,100339.34
2023-08-04T21:12:12.647Z,100345.99
2023-08-04T21:14:43.596Z,100352.85
2023-08-04T21:17:14.871Z,100353.71
2023-08-04T21:19:46.156Z,100358.98
2023-08-04T21:22:17.306Z,100365.56
2023-08-04T21:24:48.477Z,100371.23
2023-08-04T21:27:19.582Z,100379.16
2023-08-04T21:29:51.828Z,100376.50
2023-08-04T21:32:22.939Z,100379.66
2023-08-04T21:34:54.275Z,100381.89
2023-08-04T21:37:25.452Z,100373.38
2023-08-04T21:39:57.330Z,100371.16
2023-08-04T21:42:28.498Z,100372.17
2023-08-04T21:45:00.036Z,100375.73
2023-08-04T21:47:31.355Z,100374.33
2023-08-04T21:50:03.173Z,100373.89
2023-08-04T21:52:34.640Z,100379.29
2023-08-04T21:55:06.650Z,100388.84
2023-08-04T21:57:37.985Z,100394.06
2023-08-04T22:00:14.395Z,100392.54
2023-08-04T22:02:45.990Z,100401.31
2023-08-04T22:05:18.238Z,100406.00
2023-08-04T22:07:49.745Z,100406.41
2023-08-04T22:10:21.157Z,100401.64
2023-08-04T22:12:56.067Z,100405.13
2023-08-04T22:15:27.156Z,100406.51
2023-08-04T22:17:58.463Z,100411.72
2023-08-04T22:20:29.669Z,100410.98
2023-08-04T22:23:00.873Z,100417.10
2023-08-04T22:25:31.982Z,100416.32
2023-08-04T22:28:03.370Z,100420.71
2023-08-04T22:30:35.381Z,100418.63
2023-08-04T22:33:07.242Z,100422.92
2023-08-04T22:35:38.430Z,100425.84
2023-08-04T22:38:10.716Z,100420.73
2023-08-04T22:40:41.609Z,100429.02
2023-08-04T22:43:12.864Z,100426.09
2023-08-04T22:45:46.264Z,100428.39
2023-08-04T22:48:17.290Z,100421.70
2023-08-04T22:50:48.391Z,100419.91
2023-08-04T22:53:19.330Z,100417.98
2023-08-04T22:55:50.486Z,100421.13
2023-08-04T22:58:21.760Z,100422.27
2023-08-04T23:00:53.700Z,100424.70
2023-08-04T23:03:24.756Z,100427.91
2023-08-04T23:05:56.873Z,100430.16
2023-08-04T23:08:28.467Z,100437.25
2023-08-04T23:11:00.214Z,100440.27
2023-08-04T23:13:31.432Z,100440.52
2023-08-04T23:16:02.324Z,100438.07
2023-08-04T23:18:33.635Z,100431.20
2023-08-04T23:21:04.863Z,100427.36
2023-08-04T23:23:36.461Z,100425.84
2023-08-04T23:26:07.680Z,100428.63
2023-08-04T23:28:39.360Z,100434.38
2023-08-04T23:31:10.654Z,100437.80
2023-08-04T23:33:41.841Z,100438.89
2023-08-04T23:36:13.176Z,100437.85
2023-08-04T23:38:44.118Z,100435.05
2023-08-04T23:41:15.066Z,100437.59
2023-08-04T23:43:46.067Z,100439.08
2023-08-04T23:46:17.354Z,100437.27
2023-08-04T23:48:48.412Z,100441.05
2023-08-04T23:51:19.423Z,100439.50
2023-08-04T23:53:50.499Z,100443.81
2023-08-04T23:56:22.105Z,100452.05
2023-08-04T23:58:53.600Z,100448.55
